West Salem, Wisconsin
Current Conditions -  °F | °C
As of 9:53 PM on Thursday 27 Nov 2014 (Local Time) from KLSE Reporting Station
Overcast Overcast  
Wind Chill:   Ceiling: 11000
Heat Index: 12°   Visibility: 10mi
Dew Point:   Wind: 5mph
Humidity: 67%   Direction: 160°SSE
Pressure: 30.36"   Gusts: NA
Location:  43.9°N, 91.08°W
Report Text: KLSE 280353Z AUTO 16004KT 10SM OVC110 M11/M16 A3036 RMK AO2 SLP307 T11111161
Loading
Personal Weather Stations






























Interactive Weather Map New forecast layout! Learn more

10-Day Weather Forecast

Advertisements
Track Severe Weather on mobile